デンパサール の空港の天気 - METARとTAF

デンパサール国際空港 ( WADD / DPS ) - インドネシア バリ島デンパサール
飛行場実況気象(Metar)
観測時間03/30 18:00 WITA (03/30 10:00 UTC)
風向・風速西 4m/s
視程10km以上
天気現象
全天の4割程度の雲 雲底高度 520m
気温29℃
湿度74%
気圧1009hPa
METARWADD 301000Z 27008KT 9999 SCT017 29/24 Q1009 NOSIG
過去の天気等 Google飛行場航空写真 Wunderground天気予報

過去48時間のMETAR

飛行場予報(TAF)
発表時間: 3/30 13:00 WITA (3/30 05:00 UTC)
予報対象時間: 30日14時 WITA ~ 31日14時 WITA
風向・風速西 5m/s
視程10km以上
全天の4割程度の雲 雲底高度 520m
30日14時 WITA ~ 30日18時 WITA に一時的に
少しの積乱雲 雲底高度 490m
全天の4割程度の雲 雲底高度 520m
30日22時 WITA ~ 30日24時 WITA に徐々に
風向・風速不定 2m/s
31日7時 WITA ~ 31日9時 WITA に徐々に
風向・風速西 5m/s
TAF WADD 300500Z 3006/3106 28010KT 9999 SCT017
TEMPO 3006/3010 FEW016CB SCT017
BECMG 3014/3016 VRB03KT
BECMG 3023/3101 26010KT